Time;durP1;ratioP1;P1;durP2;ratioP2;P2;SDS_P1;SDS_P2;PMS_P1;PMS_P2;Temp;Humidity;BMP_temperature;BMP_pressure;BME280_temperature;BME280_humidity;BME280_pressure;Samples;Min_cycle;Max_cycle;Signal;HPM_P1;HPM_P2
2023/12/31 00:00:34;;;;;;;0.60;0.60;;;;;;;11.98;47.94;101558.13;6119518;23;20459;-85
2023/12/31 00:03:00;;;;;;;0.60;0.60;;;;;;;12.01;47.88;101561.31;6093480;23;20387;-84
2023/12/31 00:05:26;;;;;;;0.50;0.50;;;;;;;11.99;47.69;101557.13;6120911;23;20360;-84
2023/12/31 00:07:52;;;;;;;0.60;0.60;;;;;;;11.93;47.88;101558.59;6094961;23;20388;-85
2023/12/31 00:10:18;;;;;;;0.32;0.32;;;;;;;11.97;47.74;101562.59;6093006;23;20376;-84
2023/12/31 00:12:48;;;;;;;0.50;0.30;;;;;;;11.98;47.47;101561.63;6118285;23;20344;-87
2023/12/31 00:15:13;;;;;;;0.10;0.10;;;;;;;11.94;47.72;101562.06;6118474;23;20843;-85
2023/12/31 00:17:39;;;;;;;0.30;0.30;;;;;;;11.78;48.17;101563.63;6093449;23;20378;-85
2023/12/31 00:20:10;;;;;;;0.40;0.40;;;;;;;11.57;48.65;101563.16;6119121;23;20376;-84
2023/12/31 00:22:36;;;;;;;0.50;0.50;;;;;;;11.50;48.84;101568.25;6119073;23;20768;-85
2023/12/31 00:25:01;;;;;;;1.67;0.85;;;;;;;11.48;48.79;101571.06;6120635;23;20355;-84
2023/12/31 00:27:27;;;;;;;0.57;0.57;;;;;;;11.49;48.70;101563.94;6120986;23;20421;-84
2023/12/31 00:29:54;;;;;;;0.13;0.13;;;;;;;11.56;48.49;101566.78;6096899;23;20672;-85
2023/12/31 00:32:20;;;;;;;0.10;0.10;;;;;;;11.59;48.19;101566.50;6122650;23;20435;-85
2023/12/31 00:34:45;;;;;;;0.52;0.38;;;;;;;11.44;48.58;101563.56;6123127;23;20419;-85
2023/12/31 00:37:11;;;;;;;0.40;0.40;;;;;;;11.39;48.70;101563.19;6123020;23;20384;-86
2023/12/31 00:39:39;;;;;;;0.83;0.83;;;;;;;11.33;49.18;101566.47;6123060;23;20375;-86
2023/12/31 00:42:05;;;;;;;0.40;0.40;;;;;;;11.32;48.70;101573.59;6072584;23;20388;-86
2023/12/31 00:44:36;;;;;;;0.45;0.45;;;;;;;11.34;49.03;101573.44;6123453;23;20674;-85
2023/12/31 00:47:02;;;;;;;0.90;0.80;;;;;;;11.37;48.38;101581.09;6098894;23;20483;-86
2023/12/31 00:49:31;;;;;;;0.30;0.30;;;;;;;11.37;48.71;101571.31;6106855;23;20364;-85
2023/12/31 00:52:00;;;;;;;0.70;0.50;;;;;;;11.35;48.60;101567.16;6116640;23;21032;-87
2023/12/31 00:54:30;;;;;;;0.22;0.22;;;;;;;11.27;48.53;101562.59;6112843;23;20378;-87
2023/12/31 00:56:55;;;;;;;0.40;0.40;;;;;;;11.29;48.59;101563.31;6128325;23;20359;-85
2023/12/31 00:59:21;;;;;;;0.57;0.57;;;;;;;11.28;48.47;101565.09;6122625;23;20435;-87
2023/12/31 01:01:47;;;;;;;0.50;0.50;;;;;;;11.28;48.36;101558.97;6095498;23;20371;-88
2023/12/31 01:04:14;;;;;;;1.20;0.50;;;;;;;11.19;48.54;101562.56;6096749;23;20368;-85
2023/12/31 01:06:39;;;;;;;0.40;0.40;;;;;;;11.01;48.93;101554.59;6095569;23;20368;-87
2023/12/31 01:09:06;;;;;;;1.00;0.97;;;;;;;11.02;48.96;101564.22;6096801;23;20700;-84
2023/12/31 01:11:33;;;;;;;0.65;0.65;;;;;;;11.07;48.75;101557.47;6130817;23;20403;-84
2023/12/31 01:13:59;;;;;;;0.47;0.47;;;;;;;11.16;48.84;101558.38;6135181;23;20389;-87
2023/12/31 01:16:25;;;;;;;1.08;1.08;;;;;;;11.18;48.83;101560.88;6130797;23;20351;-86
2023/12/31 01:18:51;;;;;;;0.43;0.43;;;;;;;11.13;48.89;101560.50;6099200;23;20364;-85
2023/12/31 01:21:18;;;;;;;0.20;0.20;;;;;;;11.15;48.64;101556.72;6098482;23;20380;-86
2023/12/31 01:23:44;;;;;;;0.40;0.40;;;;;;;11.05;48.79;101566.56;6122361;23;20843;-87
2023/12/31 01:26:09;;;;;;;0.47;0.47;;;;;;;10.95;49.23;101556.03;6124219;23;20355;-86
2023/12/31 01:28:35;;;;;;;0.30;0.30;;;;;;;10.96;48.86;101555.03;6098152;23;20370;-84
2023/12/31 01:31:00;;;;;;;0.60;0.60;;;;;;;10.87;49.12;101553.31;6098294;23;20360;-85
2023/12/31 01:33:26;;;;;;;0.33;0.33;;;;;;;10.78;49.47;101559.50;6123336;23;20452;-84
2023/12/31 01:35:51;;;;;;;0.55;0.55;;;;;;;10.64;49.73;101566.16;6098136;23;20372;-85
2023/12/31 01:38:17;;;;;;;0.28;0.28;;;;;;;10.52;49.73;101560.25;6097752;23;20451;-85
2023/12/31 01:40:53;;;;;;;0.80;0.80;;;;;;;10.35;50.47;101558.38;6123971;23;20434;-85
2023/12/31 01:43:19;;;;;;;0.70;0.70;;;;;;;10.27;50.66;101564.41;6124220;23;20386;-85
2023/12/31 01:45:45;;;;;;;1.35;1.00;;;;;;;10.16;51.05;101564.59;6126381;23;20772;-90
2023/12/31 01:48:11;;;;;;;0.55;0.55;;;;;;;10.18;50.65;101568.75;6100654;23;20851;-91
2023/12/31 01:50:37;;;;;;;0.63;0.63;;;;;;;10.15;50.87;101571.69;6105847;23;20356;-88
2023/12/31 01:53:04;;;;;;;0.43;0.43;;;;;;;10.20;50.85;101565.97;6118603;23;20367;-85
2023/12/31 01:55:30;;;;;;;0.35;0.35;;;;;;;10.30;50.18;101569.41;6109665;23;20360;-83
2023/12/31 01:57:59;;;;;;;0.80;0.43;;;;;;;10.37;49.69;101565.22;6111807;23;20384;-86
2023/12/31 02:00:25;;;;;;;0.20;0.20;;;;;;;10.47;49.57;101563.31;6096719;23;20450;-86
2023/12/31 02:02:53;;;;;;;0.30;0.30;;;;;;;10.52;49.59;101571.69;6097334;23;20929;-86
2023/12/31 02:05:19;;;;;;;0.20;0.20;;;;;;;10.56;49.18;101558.13;6097782;23;20355;-85
2023/12/31 02:07:45;;;;;;;0.27;0.27;;;;;;;10.63;49.15;101569.81;6097263;23;20402;-86
2023/12/31 02:10:10;;;;;;;0.30;0.30;;;;;;;10.54;48.80;101560.09;6096864;23;20387;-85
2023/12/31 02:12:36;;;;;;;0.50;0.50;;;;;;;10.48;49.13;101556.22;6097618;23;20391;-86
2023/12/31 02:15:04;;;;;;;0.37;0.37;;;;;;;10.44;49.31;101563.66;6121952;23;20754;-84
2023/12/31 02:17:30;;;;;;;0.30;0.30;;;;;;;10.41;49.47;101560.47;6123221;23;20352;-87
2023/12/31 02:19:55;;;;;;;0.27;0.27;;;;;;;10.38;49.59;101561.56;6097748;23;20376;-86
2023/12/31 02:22:21;;;;;;;0.50;0.50;;;;;;;10.35;49.49;101567.16;6122888;23;20352;-87
2023/12/31 02:24:48;;;;;;;0.30;0.30;;;;;;;10.38;49.49;101560.75;6094751;23;20364;-88
2023/12/31 02:27:14;;;;;;;0.60;0.60;;;;;;;10.45;49.34;101560.00;6119964;23;20824;-88
2023/12/31 02:29:40;;;;;;;0.20;0.20;;;;;;;10.28;49.10;101558.94;6095768;23;20367;-88
2023/12/31 02:32:10;;;;;;;0.80;0.70;;;;;;;10.13;49.77;101549.81;6095816;23;20375;-88
2023/12/31 02:34:36;;;;;;;1.20;0.57;;;;;;;9.98;50.33;101541.50;6095819;23;20427;-88
2023/12/31 02:37:04;;;;;;;0.40;0.40;;;;;;;9.89;50.78;101559.09;6095635;23;20446;-87
2023/12/31 02:39:30;;;;;;;0.45;0.45;;;;;;;9.81;50.92;101545.72;6097108;23;20835;-86
2023/12/31 02:41:56;;;;;;;0.20;0.20;;;;;;;9.87;50.74;101553.13;6096884;23;20387;-85
2023/12/31 02:44:21;;;;;;;0.40;0.40;;;;;;;9.81;51.04;101553.69;6106651;23;20940;-84
2023/12/31 02:46:47;;;;;;;0.60;0.60;;;;;;;9.80;51.37;101561.78;6068859;23;20706;-86
2023/12/31 02:49:12;;;;;;;0.45;0.45;;;;;;;9.76;51.09;101554.13;6068353;23;20725;-86
2023/12/31 02:51:38;;;;;;;0.43;0.43;;;;;;;9.79;51.61;101552.16;6092733;23;20380;-86
2023/12/31 02:54:04;;;;;;;0.33;0.33;;;;;;;9.75;51.62;101556.91;6092724;23;20358;-85
2023/12/31 02:56:29;;;;;;;0.30;0.30;;;;;;;9.67;51.62;101543.53;6094261;23;20382;-85
2023/12/31 02:58:55;;;;;;;0.65;0.65;;;;;;;9.64;51.86;101546.50;6068310;23;20837;-87
2023/12/31 03:01:21;;;;;;;0.30;0.30;;;;;;;9.57;51.91;101555.00;6092208;23;20559;-86
2023/12/31 03:03:46;;;;;;;0.85;0.85;;;;;;;9.59;51.60;101546.09;6068400;23;20436;-86
2023/12/31 03:06:15;;;;;;;0.40;0.40;;;;;;;9.53;51.97;101543.03;6094354;23;20837;-86
2023/12/31 03:08:40;;;;;;;0.40;0.40;;;;;;;9.52;52.04;101557.22;6092733;23;20829;-86
2023/12/31 03:11:09;;;;;;;0.83;0.43;;;;;;;9.46;52.31;101544.59;6094199;23;20424;-86
2023/12/31 03:13:35;;;;;;;3.70;0.45;;;;;;;9.49;52.35;101551.38;6092363;23;20358;-85
2023/12/31 03:16:05;;;;;;;0.20;0.20;;;;;;;9.48;52.12;101553.22;6093777;23;20868;-86
2023/12/31 03:18:31;;;;;;;0.55;0.55;;;;;;;9.44;52.05;101553.66;6093509;23;20384;-85
2023/12/31 03:20:56;;;;;;;0.45;0.45;;;;;;;9.51;51.99;101546.81;6065532;23;20382;-87
2023/12/31 03:23:22;;;;;;;1.17;0.52;;;;;;;9.46;52.29;101543.75;6065407;23;20417;-87
2023/12/31 03:25:47;;;;;;;0.30;0.30;;;;;;;9.45;51.85;101539.44;6066738;23;20357;-87
2023/12/31 03:28:13;;;;;;;0.30;0.30;;;;;;;9.47;51.99;101548.06;6089941;23;20368;-87
2023/12/31 03:30:39;;;;;;;0.25;0.25;;;;;;;9.37;51.72;101548.09;6089502;23;20361;-88
2023/12/31 03:33:04;;;;;;;0.28;0.28;;;;;;;9.37;52.23;101545.44;6089896;23;20372;-86
2023/12/31 03:35:30;;;;;;;2.70;1.10;;;;;;;9.28;52.29;101543.66;6065785;23;20432;-87
2023/12/31 03:37:55;;;;;;;0.40;0.40;;;;;;;9.31;52.27;101556.56;6091943;23;20767;-86
2023/12/31 03:40:23;;;;;;;0.70;0.70;;;;;;;9.37;51.74;101562.13;6091264;23;20389;-86
2023/12/31 03:42:49;;;;;;;0.80;0.57;;;;;;;9.44;51.53;101558.94;6092298;23;20433;-85
2023/12/31 03:45:15;;;;;;;0.50;0.50;;;;;;;9.53;51.48;101558.09;6067177;23;20823;-86
2023/12/31 03:47:41;;;;;;;0.32;0.32;;;;;;;9.59;51.04;101557.50;6092635;23;20365;-86
2023/12/31 03:50:07;;;;;;;0.38;0.38;;;;;;;9.69;50.82;101565.44;6068648;23;20408;-86
2023/12/31 03:52:33;;;;;;;0.10;0.10;;;;;;;9.65;50.97;101556.09;6094402;23;20357;-86
2023/12/31 03:54:58;;;;;;;0.40;0.40;;;;;;;9.67;50.65;101559.44;6094596;23;20357;-88
2023/12/31 03:57:24;;;;;;;0.50;0.20;;;;;;;9.61;50.84;101560.84;6095569;23;20399;-87
2023/12/31 03:59:51;;;;;;;0.30;0.30;;;;;;;9.44;51.22;101559.78;6098719;23;20443;-87
2023/12/31 04:02:17;;;;;;;0.60;0.60;;;;;;;9.42;51.10;101566.16;6111835;23;20369;-84
2023/12/31 04:04:43;;;;;;;0.50;0.50;;;;;;;9.49;50.93;101569.91;6116708;23;20361;-85
2023/12/31 04:07:10;;;;;;;1.00;0.65;;;;;;;9.32;51.14;101563.53;6117471;23;20440;-86
2023/12/31 04:09:36;;;;;;;0.63;0.43;;;;;;;9.26;51.41;101564.94;6111974;23;20365;-86
2023/12/31 04:12:04;;;;;;;1.02;1.02;;;;;;;9.20;51.47;101570.81;6087975;23;20464;-85
2023/12/31 04:14:31;;;;;;;1.70;0.60;;;;;;;9.20;51.56;101565.53;6111038;23;20369;-85
2023/12/31 04:17:03;;;;;;;0.60;0.40;;;;;;;9.28;51.10;101578.03;6112238;23;20373;-86
2023/12/31 04:19:28;;;;;;;0.60;0.60;;;;;;;9.17;51.36;101569.25;6090308;23;20372;-86
2023/12/31 04:21:54;;;;;;;0.47;0.47;;;;;;;9.16;51.40;101575.53;6090194;23;20373;-85
2023/12/31 04:24:20;;;;;;;2.40;0.80;;;;;;;9.13;51.04;101578.47;6107876;23;20366;-85
2023/12/31 04:26:46;;;;;;;0.33;0.33;;;;;;;9.10;51.14;101576.09;6087136;23;20373;-86
2023/12/31 04:29:12;;;;;;;0.60;0.52;;;;;;;9.07;51.12;101580.81;6097280;23;20372;-86
2023/12/31 04:31:42;;;;;;;1.10;0.50;;;;;;;9.12;50.90;101589.16;6096602;23;20389;-88
2023/12/31 04:34:08;;;;;;;1.95;0.50;;;;;;;8.98;50.85;101588.63;6070497;23;20369;-87
2023/12/31 04:36:34;;;;;;;0.40;0.40;;;;;;;9.01;51.15;101582.22;6094910;23;20749;-88
2023/12/31 04:38:59;;;;;;;0.40;0.40;;;;;;;9.11;50.77;101587.50;6069950;23;20372;-86
2023/12/31 04:41:25;;;;;;;0.33;0.33;;;;;;;9.06;50.66;101568.59;6094737;23;20491;-87
2023/12/31 04:43:51;;;;;;;0.35;0.25;;;;;;;8.97;50.75;101584.28;6070226;23;20435;-86
2023/12/31 04:46:20;;;;;;;0.40;0.40;;;;;;;8.77;51.39;101564.94;6094040;23;20408;-87
2023/12/31 04:48:47;;;;;;;0.70;0.60;;;;;;;8.79;51.35;101578.00;6069083;23;20384;-87
2023/12/31 04:51:25;;;;;;;0.17;0.17;;;;;;;8.91;51.07;101579.56;6070220;23;20406;-87
2023/12/31 04:53:55;;;;;;;0.20;0.20;;;;;;;8.99;51.00;101579.69;6095304;23;20361;-87
2023/12/31 04:56:21;;;;;;;0.22;0.22;;;;;;;8.96;50.88;101587.91;6094823;23;20405;-86
2023/12/31 04:58:52;;;;;;;0.43;0.43;;;;;;;8.78;50.74;101579.81;6094209;23;20365;-85
2023/12/31 05:01:19;;;;;;;0.20;0.20;;;;;;;8.67;51.57;101584.38;6069234;23;20761;-86
2023/12/31 05:03:49;;;;;;;0.40;0.38;;;;;;;8.56;52.09;101587.97;6070147;23;20365;-87
2023/12/31 05:06:15;;;;;;;0.40;0.40;;;;;;;8.60;51.60;101581.44;6093712;23;20770;-87
2023/12/31 05:08:45;;;;;;;0.73;0.40;;;;;;;8.64;51.55;101582.00;6070937;23;20372;-87
2023/12/31 05:11:12;;;;;;;0.70;0.70;;;;;;;8.64;51.32;101577.53;6095268;23;20361;-88
2023/12/31 05:13:39;;;;;;;2.67;1.10;;;;;;;8.65;51.72;101588.97;6069709;23;20374;-88
2023/12/31 05:16:10;;;;;;;0.50;0.50;;;;;;;8.70;51.40;101584.94;6094729;23;20436;-85
2023/12/31 05:18:36;;;;;;;0.77;0.77;;;;;;;8.69;51.30;101593.84;6107207;23;20376;-87
2023/12/31 05:21:04;;;;;;;0.77;0.77;;;;;;;8.57;51.35;101587.00;6117719;23;20381;-85
2023/12/31 05:23:35;;;;;;;0.45;0.45;;;;;;;8.42;51.76;101597.94;6116177;23;20369;-86
2023/12/31 05:26:01;;;;;;;0.55;0.55;;;;;;;8.37;51.79;101597.50;6101300;23;20373;-87
2023/12/31 05:28:26;;;;;;;0.90;0.80;;;;;;;8.39;52.03;101600.84;6094066;23;20369;-87
2023/12/31 05:30:52;;;;;;;0.68;0.52;;;;;;;8.53;51.46;101594.34;6094030;23;20365;-85
2023/12/31 05:33:18;;;;;;;0.40;0.40;;;;;;;8.67;51.13;101602.88;6067847;23;20395;-85
2023/12/31 05:35:43;;;;;;;0.40;0.40;;;;;;;8.71;50.71;101593.72;6090793;23;20420;-85
2023/12/31 05:38:09;;;;;;;0.70;0.70;;;;;;;8.63;51.05;101593.56;6092354;23;20357;-88
2023/12/31 05:40:34;;;;;;;0.60;0.60;;;;;;;8.56;50.88;101591.44;6093031;23;20709;-87
2023/12/31 05:43:02;;;;;;;0.20;0.20;;;;;;;8.39;51.24;101603.47;6091192;23;20378;-87
2023/12/31 05:45:28;;;;;;;0.30;0.30;;;;;;;8.41;51.37;101598.88;6091224;23;20437;-88
2023/12/31 05:47:53;;;;;;;0.30;0.30;;;;;;;8.44;51.24;101599.63;6067731;23;20358;-87
2023/12/31 05:50:19;;;;;;;0.80;0.80;;;;;;;8.44;50.80;101607.53;6067954;23;20404;-87
2023/12/31 05:52:46;;;;;;;0.55;0.55;;;;;;;8.45;50.90;101615.34;6067945;23;20362;-86
2023/12/31 05:55:12;;;;;;;0.28;0.28;;;;;;;8.28;51.36;101618.56;6069630;23;20400;-90
2023/12/31 05:57:40;;;;;;;0.52;0.22;;;;;;;8.21;51.50;101613.84;6070940;23;20444;-90
2023/12/31 06:00:07;;;;;;;0.20;0.20;;;;;;;8.26;51.49;101608.13;6096153;23;20378;-89
2023/12/31 06:02:33;;;;;;;0.57;0.57;;;;;;;8.39;50.89;101603.47;6108537;23;20397;-88
2023/12/31 06:04:58;;;;;;;0.40;0.40;;;;;;;8.46;50.74;101614.34;6082217;23;20362;-90
2023/12/31 06:07:24;;;;;;;0.40;0.40;;;;;;;8.24;50.90;101624.13;6103567;23;20365;-87
2023/12/31 06:09:50;;;;;;;0.40;0.40;;;;;;;7.96;51.44;101616.88;6111010;23;20680;-89
2023/12/31 06:12:16;;;;;;;0.30;0.30;;;;;;;7.84;51.61;101622.25;6091946;23;20864;-84
2023/12/31 06:14:41;;;;;;;1.00;1.00;;;;;;;7.74;51.83;101624.00;6097830;23;20362;-86
2023/12/31 06:17:07;;;;;;;0.50;0.50;;;;;;;7.67;52.06;101630.75;6078409;23;20358;-87
2023/12/31 06:19:36;;;;;;;0.60;0.43;;;;;;;7.44;52.24;101620.31;6101678;23;20366;-88
2023/12/31 06:22:01;;;;;;;0.93;0.63;;;;;;;7.39;52.51;101622.50;6074277;23;20372;-88
2023/12/31 06:24:27;;;;;;;0.52;0.52;;;;;;;7.46;52.44;101628.94;6077140;23;20385;-88
2023/12/31 06:26:53;;;;;;;2.40;0.40;;;;;;;7.51;52.16;101631.19;6077856;23;20468;-91
2023/12/31 06:29:19;;;;;;;0.40;0.40;;;;;;;7.56;52.16;101633.44;6089848;23;20366;-91
2023/12/31 06:31:45;;;;;;;0.10;0.10;;;;;;;7.68;52.04;101639.50;6094235;23;20377;-90
2023/12/31 06:34:11;;;;;;;0.40;0.38;;;;;;;7.72;51.53;101636.47;6082395;23;20464;-89
2023/12/31 06:36:37;;;;;;;0.60;0.60;;;;;;;7.70;51.59;101651.59;6071101;23;20373;-90
2023/12/31 06:39:03;;;;;;;0.50;0.50;;;;;;;7.52;51.89;101638.13;6071347;23;20366;-88
2023/12/31 06:41:36;;;;;;;1.37;1.27;;;;;;;7.44;52.48;101645.88;6073834;23;20409;-89
2023/12/31 06:44:02;;;;;;;1.00;1.00;;;;;;;7.39;52.37;101650.66;6071252;23;20417;-89
2023/12/31 06:46:27;;;;;;;0.52;0.52;;;;;;;7.41;52.89;101654.03;6072479;23;20373;-89
2023/12/31 06:48:54;;;;;;;1.40;1.30;;;;;;;7.46;52.79;101659.75;6071338;23;20833;-89
2023/12/31 06:51:22;;;;;;;1.17;1.08;;;;;;;7.52;52.52;101658.41;6094776;23;20437;-89
2023/12/31 06:53:48;;;;;;;1.30;1.20;;;;;;;7.55;52.55;101658.16;6096022;23;20370;-89
2023/12/31 06:56:17;;;;;;;0.68;0.68;;;;;;;7.55;52.68;101655.53;6094688;23;20366;-89
2023/12/31 06:58:42;;;;;;;0.90;0.80;;;;;;;7.56;52.64;101655.41;6070937;23;20471;-88
2023/12/31 07:01:08;;;;;;;0.70;0.70;;;;;;;7.52;53.32;101658.41;6094519;23;20404;-89
2023/12/31 07:03:34;;;;;;;1.33;1.27;;;;;;;7.51;53.66;101664.63;6069800;23;20366;-87
2023/12/31 07:06:00;;;;;;;0.93;0.90;;;;;;;7.62;53.13;101659.34;6068202;23;20377;-87
2023/12/31 07:08:26;;;;;;;1.38;1.08;;;;;;;7.79;53.08;101679.03;6068326;23;20361;-89
2023/12/31 07:10:55;;;;;;;0.45;0.45;;;;;;;7.81;53.14;101664.75;6070115;23;20376;-88
2023/12/31 07:13:20;;;;;;;0.50;0.50;;;;;;;7.98;52.52;101670.41;6072030;23;20377;-88
2023/12/31 07:15:46;;;;;;;0.80;0.80;;;;;;;7.96;52.89;101670.53;6093659;23;20397;-89
2023/12/31 07:18:12;;;;;;;0.60;0.60;;;;;;;8.02;52.72;101674.47;6071399;23;20413;-87
2023/12/31 07:20:38;;;;;;;0.60;0.50;;;;;;;8.01;52.99;101676.28;6073432;23;20382;-91
2023/12/31 07:23:04;;;;;;;0.60;0.60;;;;;;;8.13;52.78;101684.94;6099844;23;20456;-91
2023/12/31 07:25:31;;;;;;;0.80;0.80;;;;;;;8.13;52.94;101684.13;6107421;23;20421;-90
2023/12/31 07:27:57;;;;;;;0.50;0.50;;;;;;;8.05;53.26;101679.50;6079844;23;20353;-89
2023/12/31 07:30:23;;;;;;;0.50;0.50;;;;;;;8.21;52.87;101684.28;6081066;23;20408;-86
2023/12/31 07:32:49;;;;;;;0.20;0.20;;;;;;;8.31;53.07;101682.53;6103480;23;20358;-88
2023/12/31 07:35:15;;;;;;;0.47;0.47;;;;;;;8.39;52.61;101676.59;6100682;23;20369;-87
2023/12/31 07:37:40;;;;;;;0.30;0.30;;;;;;;8.46;52.71;101688.34;6075451;23;20361;-87
2023/12/31 07:40:10;;;;;;;0.53;0.53;;;;;;;8.47;52.66;101679.47;6069876;23;20463;-88
2023/12/31 07:42:39;;;;;;;0.77;0.77;;;;;;;8.49;52.40;101680.16;6070632;23;20420;-88
2023/12/31 07:45:06;;;;;;;0.77;0.60;;;;;;;8.58;52.37;101681.19;6094008;23;20485;-88
2023/12/31 07:47:35;;;;;;;1.20;1.00;;;;;;;8.64;52.56;101679.81;6072163;23;20754;-86
2023/12/31 07:50:07;;;;;;;3.97;1.60;;;;;;;8.68;52.60;101694.41;6073297;23;20357;-87
2023/12/31 07:52:34;;;;;;;0.75;0.75;;;;;;;8.67;52.66;101696.22;6096665;23;20365;-86
2023/12/31 07:54:59;;;;;;;0.85;0.85;;;;;;;8.79;52.20;101697.81;6096488;23;20928;-87
2023/12/31 07:57:30;;;;;;;1.20;1.10;;;;;;;8.91;52.13;101700.34;6095820;23;20846;-89
2023/12/31 07:59:56;;;;;;;1.95;1.85;;;;;;;8.93;52.33;101701.91;6071513;23;20778;-89
2023/12/31 08:02:22;;;;;;;0.55;0.55;;;;;;;8.95;52.08;101697.31;6098716;23;20353;-89
2023/12/31 08:04:47;;;;;;;0.60;0.60;;;;;;;9.05;52.32;101696.50;6071087;23;20425;-89
2023/12/31 08:07:13;;;;;;;0.82;0.82;;;;;;;9.16;51.93;101694.59;6095097;23;20405;-89
2023/12/31 08:09:41;;;;;;;0.60;0.60;;;;;;;9.17;51.66;101703.34;6094861;23;20368;-89
2023/12/31 08:12:09;;;;;;;0.40;0.40;;;;;;;9.26;51.87;101712.28;6095303;23;20822;-89
2023/12/31 08:14:35;;;;;;;0.30;0.30;;;;;;;9.32;51.54;101704.59;6097389;23;20369;-89
2023/12/31 08:17:02;;;;;;;0.40;0.40;;;;;;;9.37;51.62;101709.50;6082352;23;20396;-88
2023/12/31 08:19:30;;;;;;;0.70;0.70;;;;;;;9.44;51.50;101715.09;6119902;23;20353;-88
2023/12/31 08:21:57;;;;;;;0.80;0.40;;;;;;;9.42;51.88;101714.38;6099398;23;20442;-89
2023/12/31 08:24:22;;;;;;;0.40;0.40;;;;;;;9.47;52.02;101713.00;6098076;23;20377;-89
2023/12/31 08:26:48;;;;;;;0.30;0.30;;;;;;;9.50;51.90;101706.59;6099507;23;20366;-89
2023/12/31 08:29:17;;;;;;;1.33;1.23;;;;;;;9.58;51.78;101712.03;6096493;23;20354;-89
2023/12/31 08:31:49;;;;;;;0.68;0.68;;;;;;;9.56;52.09;101725.41;6097163;23;20358;-89
2023/12/31 08:34:15;;;;;;;1.08;0.40;;;;;;;9.64;51.90;101731.81;6071657;23;20763;-87
2023/12/31 08:36:40;;;;;;;3.20;0.60;;;;;;;9.78;51.84;101726.09;6074588;23;20841;-87
2023/12/31 08:39:06;;;;;;;0.32;0.32;;;;;;;9.76;51.80;101718.28;6115164;23;20940;-85
2023/12/31 08:41:32;;;;;;;1.60;1.50;;;;;;;9.76;51.86;101718.28;6103772;23;20377;-87
2023/12/31 08:43:58;;;;;;;0.70;0.70;;;;;;;9.84;52.07;101722.88;6073514;23;20385;-88
2023/12/31 08:46:24;;;;;;;0.33;0.33;;;;;;;9.87;51.77;101722.59;6099520;23;20388;-89
2023/12/31 08:48:49;;;;;;;0.60;0.60;;;;;;;9.92;51.96;101727.47;6073298;23;20432;-88
2023/12/31 08:51:15;;;;;;;0.63;0.63;;;;;;;10.02;51.72;101728.31;6072766;23;20389;-89
2023/12/31 08:53:42;;;;;;;0.90;0.90;;;;;;;10.17;51.69;101730.50;6097107;23;20409;-88
2023/12/31 08:56:08;;;;;;;0.47;0.47;;;;;;;10.20;51.28;101714.34;6096204;23;20396;-89
2023/12/31 08:58:34;;;;;;;0.35;0.35;;;;;;;10.31;51.30;101727.44;6072202;23;20369;-91
2023/12/31 09:00:59;;;;;;;0.50;0.50;;;;;;;10.35;50.74;101728.81;6073727;23;20925;-89
2023/12/31 09:03:25;;;;;;;0.40;0.40;;;;;;;10.37;50.64;101711.00;6095196;23;20738;-89
2023/12/31 09:05:51;;;;;;;0.30;0.30;;;;;;;10.53;50.64;101713.00;6071122;23;20377;-89
2023/12/31 09:08:16;;;;;;;0.10;0.10;;;;;;;10.65;50.29;101709.19;6094115;23;20377;-90
2023/12/31 09:10:42;;;;;;;0.30;0.30;;;;;;;10.76;50.08;101705.53;6093676;23;20366;-88
2023/12/31 09:13:08;;;;;;;0.28;0.28;;;;;;;10.76;49.83;101694.91;6094720;23;20370;-89
2023/12/31 09:15:36;;;;;;;0.17;0.17;;;;;;;10.77;50.16;101693.09;6096175;23;20396;-89
2023/12/31 09:18:02;;;;;;;0.38;0.38;;;;;;;10.74;50.10;101688.09;6095245;23;20365;-91
2023/12/31 09:20:28;;;;;;;0.45;0.45;;;;;;;10.71;49.76;101691.88;6072373;23;20386;-89
2023/12/31 09:22:53;;;;;;;0.47;0.47;;;;;;;10.88;49.85;101691.09;6095087;23;20376;-88
2023/12/31 09:25:26;;;;;;;0.15;0.15;;;;;;;10.93;49.75;101690.66;6096395;23;20349;-89
2023/12/31 09:27:53;;;;;;;0.50;0.30;;;;;;;11.09;49.55;101690.84;6093144;23;20444;-86
2023/12/31 09:30:19;;;;;;;0.80;0.70;;;;;;;11.08;49.32;101689.16;6091371;23;20366;-86
2023/12/31 09:32:49;;;;;;;0.22;0.22;;;;;;;11.10;49.55;101681.88;6089529;23;20365;-86
2023/12/31 09:35:17;;;;;;;0.90;0.90;;;;;;;11.12;49.42;101692.34;6088423;23;20754;-86
2023/12/31 09:37:45;;;;;;;1.15;0.55;;;;;;;11.20;49.19;101680.97;6086797;23;20732;-85
2023/12/31 09:40:20;;;;;;;0.32;0.32;;;;;;;11.21;49.22;101680.00;6087579;23;20440;-85
2023/12/31 09:42:50;;;;;;;0.45;0.40;;;;;;;11.30;48.94;101676.44;6066259;23;20774;-84
2023/12/31 09:45:22;;;;;;;0.60;0.47;;;;;;;11.37;49.15;101669.53;6094028;23;20741;-85
2023/12/31 09:47:50;;;;;;;0.30;0.30;;;;;;;11.51;48.81;101668.19;6092214;23;20449;-85
2023/12/31 09:50:23;;;;;;;0.73;0.73;;;;;;;11.62;48.45;101659.13;6094491;23;20364;-88
2023/12/31 09:52:49;;;;;;;0.30;0.30;;;;;;;11.70;48.45;101659.19;6093214;23;20357;-87
2023/12/31 09:55:16;;;;;;;0.30;0.30;;;;;;;11.81;48.35;101660.75;6091181;23;20400;-87
2023/12/31 09:57:55;;;;;;;0.20;0.20;;;;;;;11.83;48.32;101651.66;6067963;23;20362;-86
2023/12/31 10:00:21;;;;;;;0.73;0.63;;;;;;;11.89;48.47;101646.72;6088821;23;20904;-86
2023/12/31 10:02:50;;;;;;;0.30;0.30;;;;;;;12.00;48.60;101644.66;6066289;23;20424;-88
2023/12/31 10:05:20;;;;;;;0.10;0.10;;;;;;;12.15;48.32;101642.25;6066027;23;20404;-86
2023/12/31 10:07:46;;;;;;;0.10;0.10;;;;;;;12.18;47.92;101647.25;6092185;23;20703;-84
2023/12/31 10:10:15;;;;;;;0.55;0.47;;;;;;;12.26;47.87;101637.66;6091922;23;20369;-87
2023/12/31 10:12:41;;;;;;;0.50;0.50;;;;;;;12.30;47.91;101631.03;6069148;23;20531;-86
2023/12/31 10:15:08;;;;;;;0.90;0.50;;;;;;;12.35;47.87;101628.72;6068030;23;20765;-90
2023/12/31 10:17:38;;;;;;;0.68;0.68;;;;;;;12.37;47.80;101629.41;6071480;23;20837;-94
2023/12/31 10:20:08;;;;;;;0.57;0.57;;;;;;;12.43;47.88;101616.31;6071934;23;20378;-88
2023/12/31 10:22:38;;;;;;;0.32;0.32;;;;;;;12.52;47.44;101617.19;6096490;23;20466;-89
2023/12/31 10:25:14;;;;;;;0.22;0.22;;;;;;;12.66;47.42;101610.44;6098589;23;20389;-88
2023/12/31 10:27:47;;;;;;;0.50;0.50;;;;;;;12.73;47.35;101605.25;6091018;23;20374;-89
2023/12/31 10:30:13;;;;;;;0.50;0.50;;;;;;;12.70;47.47;101603.78;6111191;23;20361;-87
2023/12/31 10:32:46;;;;;;;0.50;0.50;;;;;;;12.79;47.23;101605.47;6092115;23;20365;-88
2023/12/31 10:35:12;;;;;;;0.60;0.60;;;;;;;12.88;47.27;101595.66;6067849;23;20441;-88
2023/12/31 10:37:37;;;;;;;0.50;0.50;;;;;;;13.03;47.18;101603.84;6065841;23;20782;-88
2023/12/31 10:40:17;;;;;;;0.13;0.13;;;;;;;13.06;46.78;101592.03;6095209;23;20896;-87
2023/12/31 10:42:55;;;;;;;0.90;0.80;;;;;;;13.05;46.63;101587.72;6101539;23;20366;-87
2023/12/31 10:45:21;;;;;;;0.65;0.65;;;;;;;12.96;46.65;101578.88;6079737;23;20423;-87
2023/12/31 10:48:02;;;;;;;0.80;0.60;;;;;;;13.07;46.56;101577.72;6080083;23;20427;-89
2023/12/31 10:50:30;;;;;;;0.30;0.30;;;;;;;13.16;46.52;101577.59;6059084;23;20378;-87
2023/12/31 10:53:01;;;;;;;0.68;0.68;;;;;;;13.28;46.52;101574.59;6072452;23;20427;-89
2023/12/31 10:55:27;;;;;;;0.60;0.60;;;;;;;13.34;46.38;101566.78;6041120;23;20386;-89
2023/12/31 10:57:56;;;;;;;0.40;0.40;;;;;;;13.39;46.41;101566.28;6062520;23;21801;-87
2023/12/31 11:00:22;;;;;;;1.50;0.80;;;;;;;13.42;46.36;101552.63;6063078;23;20489;-89
2023/12/31 11:02:51;;;;;;;0.73;0.73;;;;;;;13.41;46.12;101552.81;6066117;23;20751;-89
2023/12/31 11:05:29;;;;;;;0.77;0.77;;;;;;;13.45;46.34;101544.31;6065386;23;20817;-88
2023/12/31 11:07:59;;;;;;;0.50;0.50;;;;;;;13.61;46.11;101545.28;6040824;23;20382;-89
2023/12/31 11:10:25;;;;;;;0.40;0.40;;;;;;;13.64;46.23;101539.63;6040801;23;20367;-89
2023/12/31 11:12:52;;;;;;;0.17;0.17;;;;;;;13.72;46.16;101532.44;6065499;23;20382;-89
2023/12/31 11:15:21;;;;;;;0.60;0.60;;;;;;;13.73;45.98;101534.09;6066410;23;20435;-88
2023/12/31 11:17:49;;;;;;;0.47;0.40;;;;;;;13.72;46.00;101515.59;6066646;23;20403;-87
2023/12/31 11:20:37;;;;;;;0.17;0.17;;;;;;;13.78;45.91;101517.59;6065123;23;20379;-90
2023/12/31 11:23:33;;;;;;;0.30;0.30;;;;;;;13.80;45.78;101512.91;6042665;23;20403;-90
2023/12/31 11:25:59;;;;;;;0.30;0.30;;;;;;;13.87;45.85;101502.41;6043435;23;20391;-90
2023/12/31 11:28:27;;;;;;;0.35;0.35;;;;;;;13.84;45.81;101500.09;6041357;23;20367;-89